createdAt,value
2019-06-20T04:53:56.653Z,27.40
2019-06-20T04:54:42.896Z,26.50
2019-06-20T04:55:29.197Z,25.60
2019-06-20T04:56:15.285Z,24.90
2019-06-20T04:57:21.427Z,24.20
2019-06-20T04:58:06.828Z,23.70
2019-06-20T05:04:26.695Z,22.20
2019-06-20T05:05:12.260Z,22.20
2019-06-20T05:05:57.763Z,22.10
2019-06-20T05:06:45.435Z,22.00
2019-06-20T05:07:31.125Z,22.00
2019-06-20T05:08:16.266Z,22.00
2019-06-20T05:09:01.858Z,22.00
2019-06-20T05:09:46.947Z,22.10
2019-06-20T05:10:32.204Z,22.10
2019-06-20T05:11:17.542Z,22.10
2019-06-20T05:12:02.821Z,22.10
2019-06-20T05:12:48.359Z,22.10
2019-06-20T05:13:34.017Z,22.10
2019-06-20T05:14:19.840Z,22.10
2019-06-20T05:15:06.563Z,22.10
2019-06-20T05:15:53.235Z,22.10
2019-06-20T05:16:39.303Z,22.10
2019-06-20T05:17:25.063Z,22.10
2019-06-20T05:18:10.663Z,22.10
2019-06-20T05:18:56.506Z,22.10
2019-06-20T05:19:42.103Z,22.10
2019-06-20T05:20:28.094Z,22.00
2019-06-20T05:21:13.694Z,22.10
2019-06-20T05:21:59.425Z,22.10
2019-06-20T05:22:45.148Z,22.00
2019-06-20T05:23:30.893Z,22.00
2019-06-20T05:24:16.953Z,22.00
2019-06-20T05:25:02.589Z,22.00
2019-06-20T05:25:48.288Z,22.00
2019-06-20T05:26:34.180Z,22.00
2019-06-20T05:27:19.702Z,22.00
2019-06-20T05:28:05.286Z,22.00
2019-06-20T05:28:50.894Z,22.00
2019-06-20T05:29:36.482Z,22.00
2019-06-20T05:30:22.648Z,21.90
2019-06-20T05:31:08.479Z,21.90
2019-06-20T05:31:54.159Z,21.80
2019-06-20T05:32:39.842Z,21.80
2019-06-20T05:33:25.679Z,21.80
2019-06-20T05:34:11.601Z,21.80
2019-06-20T05:34:57.381Z,21.80
2019-06-20T05:35:43.200Z,21.80
2019-06-20T05:36:29.047Z,21.90
2019-06-20T05:37:15.041Z,21.90
2019-06-20T05:38:00.893Z,21.90
2019-06-20T05:38:46.720Z,21.90
2019-06-20T05:39:32.559Z,21.90
2019-06-20T05:40:18.673Z,22.00
2019-06-20T05:41:04.672Z,22.00
2019-06-20T05:41:50.574Z,22.10
2019-06-20T05:42:36.411Z,22.10
2019-06-20T05:43:22.194Z,22.10
2019-06-20T05:44:07.964Z,22.10
2019-06-20T05:45:13.262Z,22.10
2019-06-20T05:46:08.928Z,22.00
2019-06-20T05:46:45.735Z,22.00
2019-06-20T05:47:31.697Z,22.00
2019-06-20T05:48:17.470Z,22.00
2019-06-20T05:49:03.314Z,22.00
2019-06-20T05:49:49.311Z,22.00
2019-06-20T05:50:34.901Z,22.00
2019-06-20T05:51:20.750Z,22.00
2019-06-20T05:52:06.546Z,22.00
2019-06-20T05:52:52.936Z,22.10
2019-06-20T05:53:38.750Z,22.10
2019-06-20T05:54:24.604Z,22.10
2019-06-20T05:55:10.675Z,22.20
2019-06-20T05:55:56.270Z,22.20
2019-06-20T05:56:42.200Z,22.10
2019-06-20T05:57:28.270Z,22.10
2019-06-20T05:58:13.790Z,22.10
2019-06-20T05:58:59.313Z,22.10
2019-06-20T05:59:45.177Z,22.10
2019-06-20T06:00:31.555Z,22.00
2019-06-20T06:01:17.287Z,22.00
2019-06-20T06:02:02.900Z,21.90
2019-06-20T06:02:48.725Z,21.90
2019-06-20T06:03:34.813Z,21.90
2019-06-20T06:04:20.802Z,21.90
2019-06-20T06:05:07.679Z,21.90
2019-06-20T06:05:53.572Z,21.90
2019-06-20T06:06:39.376Z,21.90
2019-06-20T06:07:25.046Z,21.90
2019-06-20T06:08:10.810Z,21.90
2019-06-20T06:08:56.628Z,22.00
2019-06-20T06:09:42.229Z,21.90
2019-06-20T06:10:27.894Z,22.00
2019-06-20T06:11:13.803Z,21.90
2019-06-20T06:11:59.316Z,21.90
2019-06-20T06:12:45.348Z,21.90
2019-06-20T06:13:31.235Z,22.00
2019-06-20T06:14:17.236Z,22.10
2019-06-20T06:15:03.083Z,22.10
2019-06-20T06:15:48.841Z,22.20
2019-06-20T06:16:34.761Z,22.40
2019-06-20T06:17:21.082Z,22.50
2019-06-20T06:18:06.915Z,22.60
2019-06-20T06:18:52.353Z,22.60
2019-06-20T06:19:38.273Z,22.70
2019-06-20T06:20:24.201Z,22.70
2019-06-20T06:21:10.020Z,22.70
2019-06-20T06:21:55.774Z,22.80
2019-06-20T06:22:44.497Z,22.80
2019-06-20T06:23:28.601Z,22.80
2019-06-20T06:24:14.363Z,22.80
